sensor_id;sensor_type;location;lat;lon;timestamp;pressure;altitude;pressure_sealevel;temperature;humidity
77351;BME280;66420;50.246;14.320;2023-04-21T00:01:27;99681.53;;;6.55;83.36
77351;BME280;66420;50.246;14.320;2023-04-21T00:04:13;99678.59;;;6.47;84.03
77351;BME280;66420;50.246;14.320;2023-04-21T00:06:58;99680.81;;;6.45;83.77
77351;BME280;66420;50.246;14.320;2023-04-21T00:09:46;99672.13;;;6.33;85.77
77351;BME280;66420;50.246;14.320;2023-04-21T00:12:31;99679.22;;;6.29;85.54
77351;BME280;66420;50.246;14.320;2023-04-21T00:15:16;99686.81;;;6.37;86.25
77351;BME280;66420;50.246;14.320;2023-04-21T00:18:01;99673.19;;;6.42;88.18
77351;BME280;66420;50.246;14.320;2023-04-21T00:20:47;99670.47;;;6.42;87.45
77351;BME280;66420;50.246;14.320;2023-04-21T00:23:32;99676.66;;;6.57;88.41
77351;BME280;66420;50.246;14.320;2023-04-21T00:26:16;99670.59;;;6.71;87.94
77351;BME280;66420;50.246;14.320;2023-04-21T00:29:01;99666.56;;;6.68;87.06
77351;BME280;66420;50.246;14.320;2023-04-21T00:31:47;99667.06;;;6.70;86.46
77351;BME280;66420;50.246;14.320;2023-04-21T00:34:31;99677.94;;;6.70;85.95
77351;BME280;66420;50.246;14.320;2023-04-21T00:37:17;99669.28;;;6.63;87.04
77351;BME280;66420;50.246;14.320;2023-04-21T00:40:02;99679.13;;;6.54;85.37
77351;BME280;66420;50.246;14.320;2023-04-21T00:42:48;99659.47;;;6.67;87.30
77351;BME280;66420;50.246;14.320;2023-04-21T00:45:32;99669.88;;;6.55;85.15
77351;BME280;66420;50.246;14.320;2023-04-21T00:48:17;99662.59;;;6.40;86.56
77351;BME280;66420;50.246;14.320;2023-04-21T00:51:02;99677.56;;;6.33;86.23
77351;BME280;66420;50.246;14.320;2023-04-21T00:53:47;99671.03;;;6.34;85.40
77351;BME280;66420;50.246;14.320;2023-04-21T00:56:32;99669.72;;;6.31;84.80
77351;BME280;66420;50.246;14.320;2023-04-21T00:59:17;99665.13;;;6.21;86.41
77351;BME280;66420;50.246;14.320;2023-04-21T01:02:02;99665.13;;;6.21;86.88
77351;BME280;66420;50.246;14.320;2023-04-21T01:04:47;99654.84;;;6.13;87.03
77351;BME280;66420;50.246;14.320;2023-04-21T01:07:32;99658.66;;;6.07;85.77
77351;BME280;66420;50.246;14.320;2023-04-21T01:10:17;99658.09;;;6.10;85.69
77351;BME280;66420;50.246;14.320;2023-04-21T01:13:02;99660.81;;;6.10;85.85
77351;BME280;66420;50.246;14.320;2023-04-21T01:15:47;99656.50;;;6.04;84.77
77351;BME280;66420;50.246;14.320;2023-04-21T01:18:33;99651.06;;;5.99;86.33
77351;BME280;66420;50.246;14.320;2023-04-21T01:21:19;99653.81;;;5.94;85.97
77351;BME280;66420;50.246;14.320;2023-04-21T01:24:05;99647.28;;;5.90;86.55
77351;BME280;66420;50.246;14.320;2023-04-21T01:26:49;99652.72;;;5.90;85.07
77351;BME280;66420;50.246;14.320;2023-04-21T01:29:34;99654.06;;;5.88;84.61
77351;BME280;66420;50.246;14.320;2023-04-21T01:32:21;99651.59;;;5.96;85.01
77351;BME280;66420;50.246;14.320;2023-04-21T01:35:06;99652.16;;;5.93;85.06
77351;BME280;66420;50.246;14.320;2023-04-21T01:37:51;99651.88;;;5.85;85.92
77351;BME280;66420;50.246;14.320;2023-04-21T01:40:36;99645.66;;;5.69;85.65
77351;BME280;66420;50.246;14.320;2023-04-21T01:43:23;99644.06;;;5.58;86.49
77351;BME280;66420;50.246;14.320;2023-04-21T01:46:08;99652.47;;;5.56;85.56
77351;BME280;66420;50.246;14.320;2023-04-21T01:48:53;99654.38;;;5.46;86.25
77351;BME280;66420;50.246;14.320;2023-04-21T01:51:38;99647.34;;;5.40;86.98
77351;BME280;66420;50.246;14.320;2023-04-21T01:54:22;99644.06;;;5.38;86.71
77351;BME280;66420;50.246;14.320;2023-04-21T01:57:07;99648.69;;;5.37;86.00
77351;BME280;66420;50.246;14.320;2023-04-21T01:59:52;99643.56;;;5.30;85.90
77351;BME280;66420;50.246;14.320;2023-04-21T02:02:37;99640.53;;;5.32;84.97
77351;BME280;66420;50.246;14.320;2023-04-21T02:05:21;99638.91;;;5.41;86.79
77351;BME280;66420;50.246;14.320;2023-04-21T02:08:06;99638.66;;;5.38;85.74
77351;BME280;66420;50.246;14.320;2023-04-21T02:10:51;99643.00;;;5.39;85.04
77351;BME280;66420;50.246;14.320;2023-04-21T02:13:36;99641.91;;;5.40;85.31
77351;BME280;66420;50.246;14.320;2023-04-21T02:16:21;99639.22;;;5.40;85.24
77351;BME280;66420;50.246;14.320;2023-04-21T02:19:09;99639.22;;;5.45;85.50
77351;BME280;66420;50.246;14.320;2023-04-21T02:21:54;99641.09;;;5.39;84.85
77351;BME280;66420;50.246;14.320;2023-04-21T02:28:20;99644.06;;;5.38;86.00
77351;BME280;66420;50.246;14.320;2023-04-21T02:31:05;99650.59;;;5.21;86.46
77351;BME280;66420;50.246;14.320;2023-04-21T02:33:50;99646.00;;;5.22;85.51
77351;BME280;66420;50.246;14.320;2023-04-21T02:36:35;99642.72;;;5.20;86.35
77351;BME280;66420;50.246;14.320;2023-04-21T02:39:19;99644.09;;;5.17;86.22
77351;BME280;66420;50.246;14.320;2023-04-21T02:42:04;99646.53;;;5.19;85.98
77351;BME280;66420;50.246;14.320;2023-04-21T02:44:48;99648.94;;;5.00;86.78
77351;BME280;66420;50.246;14.320;2023-04-21T02:47:33;99646.25;;;4.90;87.90
77351;BME280;66420;50.246;14.320;2023-04-21T02:50:19;99645.69;;;4.88;87.24
77351;BME280;66420;50.246;14.320;2023-04-21T02:53:03;99645.16;;;4.81;87.55
77351;BME280;66420;50.246;14.320;2023-04-21T02:55:48;99650.03;;;4.84;86.75
77351;BME280;66420;50.246;14.320;2023-04-21T02:58:34;99648.13;;;4.84;87.73
77351;BME280;66420;50.246;14.320;2023-04-21T03:01:19;99635.91;;;4.82;86.73
77351;BME280;66420;50.246;14.320;2023-04-21T03:04:04;99644.34;;;4.80;86.78
77351;BME280;66420;50.246;14.320;2023-04-21T03:06:48;99646.22;;;4.80;87.78
77351;BME280;66420;50.246;14.320;2023-04-21T03:09:34;99640.53;;;4.76;88.65
77351;BME280;66420;50.246;14.320;2023-04-21T03:12:19;99639.41;;;4.72;87.37
77351;BME280;66420;50.246;14.320;2023-04-21T03:15:04;99640.75;;;4.65;87.79
77351;BME280;66420;50.246;14.320;2023-04-21T03:17:49;99642.41;;;4.66;87.24
77351;BME280;66420;50.246;14.320;2023-04-21T03:20:34;99640.50;;;4.66;87.86
77351;BME280;66420;50.246;14.320;2023-04-21T03:23:52;99642.69;;;4.69;87.56
77351;BME280;66420;50.246;14.320;2023-04-21T03:26:38;99641.59;;;4.65;87.55
77351;BME280;66420;50.246;14.320;2023-04-21T03:29:26;99648.38;;;4.63;87.96
77351;BME280;66420;50.246;14.320;2023-04-21T03:32:10;99645.06;;;4.51;87.94
77351;BME280;66420;50.246;14.320;2023-04-21T03:34:56;99647.78;;;4.51;87.29
77351;BME280;66420;50.246;14.320;2023-04-21T03:37:41;99638.59;;;4.57;87.15
77351;BME280;66420;50.246;14.320;2023-04-21T03:40:26;99639.41;;;4.57;86.77
77351;BME280;66420;50.246;14.320;2023-04-21T03:43:11;99652.91;;;4.42;86.44
77351;BME280;66420;50.246;14.320;2023-04-21T03:45:56;99640.16;;;4.37;87.23
77351;BME280;66420;50.246;14.320;2023-04-21T03:48:40;99643.44;;;4.39;86.40
77351;BME280;66420;50.246;14.320;2023-04-21T03:51:25;99647.22;;;4.38;86.29
77351;BME280;66420;50.246;14.320;2023-04-21T03:57:52;99643.13;;;4.36;86.57
77351;BME280;66420;50.246;14.320;2023-04-21T04:00:37;99651.00;;;4.37;85.54
77351;BME280;66420;50.246;14.320;2023-04-21T04:03:21;99642.84;;;4.32;85.50
77351;BME280;66420;50.246;14.320;2023-04-21T04:06:06;99646.13;;;4.34;86.08
77351;BME280;66420;50.246;14.320;2023-04-21T04:08:51;99645.81;;;4.31;88.08
77351;BME280;66420;50.246;14.320;2023-04-21T04:11:35;99650.94;;;4.27;87.07
77351;BME280;66420;50.246;14.320;2023-04-21T04:14:20;99653.41;;;4.29;86.69
77351;BME280;66420;50.246;14.320;2023-04-21T04:17:05;99658.00;;;4.28;87.25
77351;BME280;66420;50.246;14.320;2023-04-21T04:19:50;99655.28;;;4.28;87.59
77351;BME280;66420;50.246;14.320;2023-04-21T04:22:34;99657.69;;;4.20;87.24
77351;BME280;66420;50.246;14.320;2023-04-21T04:25:19;99655.25;;;4.23;86.14
77351;BME280;66420;50.246;14.320;2023-04-21T04:28:04;99656.88;;;4.19;86.67
77351;BME280;66420;50.246;14.320;2023-04-21T04:30:51;99658.50;;;4.20;86.78
77351;BME280;66420;50.246;14.320;2023-04-21T04:33:39;99657.19;;;4.28;86.03
77351;BME280;66420;50.246;14.320;2023-04-21T04:36:25;99661.53;;;4.29;86.47
77351;BME280;66420;50.246;14.320;2023-04-21T04:39:11;99664.78;;;4.36;86.55
77351;BME280;66420;50.246;14.320;2023-04-21T04:41:56;99671.03;;;4.36;86.72
77351;BME280;66420;50.246;14.320;2023-04-21T04:44:41;99671.84;;;4.37;86.37
77351;BME280;66420;50.246;14.320;2023-04-21T04:47:26;99667.53;;;4.41;86.56
77351;BME280;66420;50.246;14.320;2023-04-21T04:50:11;99676.47;;;4.41;87.00
77351;BME280;66420;50.246;14.320;2023-04-21T04:52:56;99668.34;;;4.41;86.86
77351;BME280;66420;50.246;14.320;2023-04-21T04:55:41;99670.53;;;4.50;87.67
77351;BME280;66420;50.246;14.320;2023-04-21T04:58:26;99661.91;;;4.58;85.73
77351;BME280;66420;50.246;14.320;2023-04-21T05:01:12;99667.88;;;4.65;87.13
77351;BME280;66420;50.246;14.320;2023-04-21T05:03:57;99663.81;;;4.62;85.94
77351;BME280;66420;50.246;14.320;2023-04-21T05:06:41;99672.25;;;4.71;86.26
77351;BME280;66420;50.246;14.320;2023-04-21T05:09:26;99668.44;;;4.77;85.22
77351;BME280;66420;50.246;14.320;2023-04-21T05:12:10;99674.69;;;4.82;85.67
77351;BME280;66420;50.246;14.320;2023-04-21T05:14:55;99670.66;;;4.90;85.73
77351;BME280;66420;50.246;14.320;2023-04-21T05:17:40;99682.03;;;4.97;88.11
77351;BME280;66420;50.246;14.320;2023-04-21T05:20:24;99674.47;;;4.99;86.55
77351;BME280;66420;50.246;14.320;2023-04-21T05:23:09;99674.19;;;5.01;86.53
77351;BME280;66420;50.246;14.320;2023-04-21T05:25:55;99687.47;;;5.02;87.72
77351;BME280;66420;50.246;14.320;2023-04-21T05:28:39;99682.09;;;5.17;88.49
77351;BME280;66420;50.246;14.320;2023-04-21T05:31:24;99680.97;;;5.18;88.48
77351;BME280;66420;50.246;14.320;2023-04-21T05:34:09;99685.88;;;5.36;89.74
77351;BME280;66420;50.246;14.320;2023-04-21T05:36:54;99683.72;;;5.49;89.57
77351;BME280;66420;50.246;14.320;2023-04-21T05:39:38;99682.06;;;5.68;90.21
77351;BME280;66420;50.246;14.320;2023-04-21T05:42:23;99684.22;;;5.81;87.16
77351;BME280;66420;50.246;14.320;2023-04-21T05:45:08;99683.06;;;6.28;89.02
77351;BME280;66420;50.246;14.320;2023-04-21T05:47:52;99682.94;;;6.48;88.10
77351;BME280;66420;50.246;14.320;2023-04-21T05:50:38;99680.72;;;6.60;88.81
77351;BME280;66420;50.246;14.320;2023-04-21T05:53:23;99676.25;;;6.79;87.85
77351;BME280;66420;50.246;14.320;2023-04-21T05:56:08;99679.91;;;7.08;87.18
77351;BME280;66420;50.246;14.320;2023-04-21T05:58:53;99678.44;;;7.21;85.75
77351;BME280;66420;50.246;14.320;2023-04-21T06:01:38;99681.09;;;7.31;85.00
77351;BME280;66420;50.246;14.320;2023-04-21T06:04:22;99684.56;;;7.42;85.07
77351;BME280;66420;50.246;14.320;2023-04-21T06:07:08;99684.69;;;7.61;85.02
77351;BME280;66420;50.246;14.320;2023-04-21T06:09:53;99675.53;;;7.75;84.29
77351;BME280;66420;50.246;14.320;2023-04-21T06:12:38;99682.22;;;7.88;83.27
77351;BME280;66420;50.246;14.320;2023-04-21T06:15:24;99677.47;;;7.98;82.68
77351;BME280;66420;50.246;14.320;2023-04-21T06:18:08;99676.78;;;8.12;81.47
77351;BME280;66420;50.246;14.320;2023-04-21T06:20:54;99687.94;;;8.15;81.83
77351;BME280;66420;50.246;14.320;2023-04-21T06:23:39;99682.72;;;8.19;81.92
77351;BME280;66420;50.246;14.320;2023-04-21T06:26:24;99682.94;;;8.22;81.49
77351;BME280;66420;50.246;14.320;2023-04-21T06:29:09;99680.31;;;8.41;82.15
77351;BME280;66420;50.246;14.320;2023-04-21T06:31:54;99676.41;;;8.47;81.85
77351;BME280;66420;50.246;14.320;2023-04-21T06:34:38;99677.44;;;8.51;80.11
77351;BME280;66420;50.246;14.320;2023-04-21T06:37:23;99678.88;;;8.67;80.08
77351;BME280;66420;50.246;14.320;2023-04-21T06:40:08;99674.91;;;8.78;81.08
77351;BME280;66420;50.246;14.320;2023-04-21T06:42:55;99673.00;;;8.98;79.70
77351;BME280;66420;50.246;14.320;2023-04-21T06:45:40;99667.22;;;9.18;80.47
77351;BME280;66420;50.246;14.320;2023-04-21T06:48:25;99675.59;;;9.40;79.72
77351;BME280;66420;50.246;14.320;2023-04-21T06:51:10;99669.22;;;9.63;78.43
77351;BME280;66420;50.246;14.320;2023-04-21T06:53:54;99669.56;;;9.75;77.14
77351;BME280;66420;50.246;14.320;2023-04-21T06:56:39;99670.91;;;9.92;76.34
77351;BME280;66420;50.246;14.320;2023-04-21T06:59:26;99676.44;;;10.19;74.92
77351;BME280;66420;50.246;14.320;2023-04-21T07:02:10;99671.56;;;10.30;75.42
77351;BME280;66420;50.246;14.320;2023-04-21T07:04:55;99678.44;;;10.54;73.66
77351;BME280;66420;50.246;14.320;2023-04-21T07:07:39;99678.66;;;10.72;73.26
77351;BME280;66420;50.246;14.320;2023-04-21T07:10:27;99670.09;;;10.87;72.93
77351;BME280;66420;50.246;14.320;2023-04-21T07:13:12;99676.09;;;11.11;72.29
77351;BME280;66420;50.246;14.320;2023-04-21T07:16:00;99667.78;;;11.16;72.27
77351;BME280;66420;50.246;14.320;2023-04-21T07:18:45;99665.84;;;11.39;70.45
77351;BME280;66420;50.246;14.320;2023-04-21T07:21:29;99657.34;;;11.40;69.61
77351;BME280;66420;50.246;14.320;2023-04-21T07:24:15;99654.09;;;11.38;68.38
77351;BME280;66420;50.246;14.320;2023-04-21T07:27:00;99657.69;;;11.47;68.24
77351;BME280;66420;50.246;14.320;2023-04-21T07:29:45;99664.84;;;11.57;67.42
77351;BME280;66420;50.246;14.320;2023-04-21T07:32:31;99665.09;;;11.69;67.47
77351;BME280;66420;50.246;14.320;2023-04-21T07:35:17;99653.59;;;11.81;67.38
77351;BME280;66420;50.246;14.320;2023-04-21T07:38:02;99655.94;;;11.96;67.55
77351;BME280;66420;50.246;14.320;2023-04-21T07:40:47;99651.47;;;12.09;67.18
77351;BME280;66420;50.246;14.320;2023-04-21T07:43:32;99651.97;;;12.19;67.67
77351;BME280;66420;50.246;14.320;2023-04-21T07:46:17;99654.03;;;12.44;66.83
77351;BME280;66420;50.246;14.320;2023-04-21T07:49:02;99644.88;;;12.66;66.10
77351;BME280;66420;50.246;14.320;2023-04-21T07:51:47;99652.50;;;12.78;66.32
77351;BME280;66420;50.246;14.320;2023-04-21T07:54:31;99645.38;;;12.94;66.79
77351;BME280;66420;50.246;14.320;2023-04-21T07:57:16;99641.06;;;13.10;66.84
77351;BME280;66420;50.246;14.320;2023-04-21T08:00:01;99651.56;;;13.43;64.96
77351;BME280;66420;50.246;14.320;2023-04-21T08:06:27;99652.00;;;13.70;61.86
77351;BME280;66420;50.246;14.320;2023-04-21T08:09:12;99635.34;;;13.67;61.30
77351;BME280;66420;50.246;14.320;2023-04-21T08:11:57;99645.50;;;13.84;61.69
77351;BME280;66420;50.246;14.320;2023-04-21T08:14:42;99635.44;;;13.96;60.91
77351;BME280;66420;50.246;14.320;2023-04-21T08:17:26;99632.97;;;14.03;60.94
77351;BME280;66420;50.246;14.320;2023-04-21T08:20:12;99622.84;;;14.25;60.44
77351;BME280;66420;50.246;14.320;2023-04-21T08:22:57;99630.63;;;14.23;59.52
77351;BME280;66420;50.246;14.320;2023-04-21T08:25:41;99640.31;;;14.29;60.31
77351;BME280;66420;50.246;14.320;2023-04-21T08:30:56;99647.53;;;14.71;59.57
77351;BME280;66420;50.246;14.320;2023-04-21T08:33:41;99634.56;;;14.80;59.50
77351;BME280;66420;50.246;14.320;2023-04-21T08:36:26;99631.19;;;14.95;60.40
77351;BME280;66420;50.246;14.320;2023-04-21T08:39:11;99625.00;;;14.98;58.43
77351;BME280;66420;50.246;14.320;2023-04-21T08:41:57;99625.00;;;14.98;58.50
77351;BME280;66420;50.246;14.320;2023-04-21T08:44:46;99621.72;;;15.26;60.25
77351;BME280;66420;50.246;14.320;2023-04-21T08:47:37;99623.78;;;15.29;57.40
77351;BME280;66420;50.246;14.320;2023-04-21T08:50:26;99634.66;;;15.46;57.03
77351;BME280;66420;50.246;14.320;2023-04-21T08:56:53;99621.31;;;15.69;56.80
77351;BME280;66420;50.246;14.320;2023-04-21T08:59:38;99626.59;;;15.74;55.44
77351;BME280;66420;50.246;14.320;2023-04-21T09:02:22;99629.94;;;15.67;55.91
77351;BME280;66420;50.246;14.320;2023-04-21T09:05:07;99632.03;;;15.82;55.11
77351;BME280;66420;50.246;14.320;2023-04-21T09:08:10;99633.66;;;15.95;55.36
77351;BME280;66420;50.246;14.320;2023-04-21T09:10:56;99622.66;;;16.08;55.80
77351;BME280;66420;50.246;14.320;2023-04-21T09:13:41;99613.34;;;16.12;54.81
77351;BME280;66420;50.246;14.320;2023-04-21T09:16:30;99618.63;;;16.29;55.33
77351;BME280;66420;50.246;14.320;2023-04-21T09:19:16;99609.78;;;16.36;55.04
77351;BME280;66420;50.246;14.320;2023-04-21T09:22:02;99615.88;;;16.66;54.24
77351;BME280;66420;50.246;14.320;2023-04-21T09:24:48;99609.34;;;16.58;51.95
77351;BME280;66420;50.246;14.320;2023-04-21T09:27:36;99615.88;;;16.66;53.13
77351;BME280;66420;50.246;14.320;2023-04-21T09:30:21;99618.16;;;16.64;53.65
77351;BME280;66420;50.246;14.320;2023-04-21T09:33:06;99608.84;;;16.80;52.39
77351;BME280;66420;50.246;14.320;2023-04-21T09:35:54;99601.94;;;16.74;52.54
77351;BME280;66420;50.246;14.320;2023-04-21T09:38:39;99599.56;;;17.01;53.27
77351;BME280;66420;50.246;14.320;2023-04-21T09:41:52;99598.47;;;17.17;51.29
77351;BME280;66420;50.246;14.320;2023-04-21T09:44:40;99601.25;;;17.45;53.46
77351;BME280;66420;50.246;14.320;2023-04-21T09:47:29;99596.41;;;17.70;52.44
77351;BME280;66420;50.246;14.320;2023-04-21T09:50:18;99600.59;;;17.64;50.49
77351;BME280;66420;50.246;14.320;2023-04-21T09:53:05;99592.13;;;17.45;49.80
77351;BME280;66420;50.246;14.320;2023-04-21T09:55:52;99589.41;;;17.60;49.70
77351;BME280;66420;50.246;14.320;2023-04-21T09:58:45;99586.34;;;17.78;49.76
77351;BME280;66420;50.246;14.320;2023-04-21T10:01:32;99587.06;;;17.90;49.75
77351;BME280;66420;50.246;14.320;2023-04-21T10:04:18;99588.75;;;17.95;47.99
77351;BME280;66420;50.246;14.320;2023-04-21T10:07:05;99580.19;;;18.00;50.43
77351;BME280;66420;50.246;14.320;2023-04-21T10:09:52;99571.22;;;18.22;48.63
77351;BME280;66420;50.246;14.320;2023-04-21T10:18:55;99573.72;;;18.27;47.39
77351;BME280;66420;50.246;14.320;2023-04-21T10:21:39;99574.06;;;18.41;47.17
77351;BME280;66420;50.246;14.320;2023-04-21T10:24:27;99568.06;;;18.39;45.99
77351;BME280;66420;50.246;14.320;2023-04-21T10:27:30;99558.47;;;18.52;46.27
77351;BME280;66420;50.246;14.320;2023-04-21T10:30:22;99551.56;;;18.27;46.00
77351;BME280;66420;50.246;14.320;2023-04-21T10:33:07;99550.66;;;18.54;44.82
77351;BME280;66420;50.246;14.320;2023-04-21T10:35:59;99549.28;;;18.48;44.17
77351;BME280;66420;50.246;14.320;2023-04-21T10:38:54;99546.44;;;18.45;44.09
77351;BME280;66420;50.246;14.320;2023-04-21T10:41:42;99544.75;;;18.40;44.98
77351;BME280;66420;50.246;14.320;2023-04-21T10:44:27;99547.59;;;18.44;44.84
77351;BME280;66420;50.246;14.320;2023-04-21T10:47:12;99546.84;;;18.63;44.88
77351;BME280;66420;50.246;14.320;2023-04-21T10:49:58;99540.22;;;18.67;44.99
77351;BME280;66420;50.246;14.320;2023-04-21T10:55:38;99545.56;;;18.76;43.07
77351;BME280;66420;50.246;14.320;2023-04-21T10:58:25;99540.19;;;18.83;43.92
77351;BME280;66420;50.246;14.320;2023-04-21T11:01:10;99532.00;;;18.90;43.59
77351;BME280;66420;50.246;14.320;2023-04-21T11:03:55;99539.28;;;18.98;43.98
77351;BME280;66420;50.246;14.320;2023-04-21T11:06:42;99533.63;;;18.91;43.95
77351;BME280;66420;50.246;14.320;2023-04-21T11:09:27;99531.41;;;19.00;43.15
77351;BME280;66420;50.246;14.320;2023-04-21T11:12:14;99530.47;;;18.92;43.55
77351;BME280;66420;50.246;14.320;2023-04-21T11:15:03;99537.38;;;19.21;42.59
77351;BME280;66420;50.246;14.320;2023-04-21T11:17:48;99528.16;;;19.56;44.86
77351;BME280;66420;50.246;14.320;2023-04-21T11:20:33;99507.28;;;19.42;42.69
77351;BME280;66420;50.246;14.320;2023-04-21T11:23:18;99523.78;;;19.35;42.77
77351;BME280;66420;50.246;14.320;2023-04-21T11:26:02;99522.81;;;19.24;42.36
77351;BME280;66420;50.246;14.320;2023-04-21T11:28:47;99516.81;;;18.65;42.33
77351;BME280;66420;50.246;14.320;2023-04-21T11:31:34;99524.19;;;18.41;43.43
77351;BME280;66420;50.246;14.320;2023-04-21T11:34:20;99511.41;;;18.72;42.44
77351;BME280;66420;50.246;14.320;2023-04-21T11:37:06;99512.16;;;18.88;42.67
77351;BME280;66420;50.246;14.320;2023-04-21T11:40:01;99506.09;;;18.82;42.24
77351;BME280;66420;50.246;14.320;2023-04-21T11:42:47;99515.94;;;19.18;43.21
77351;BME280;66420;50.246;14.320;2023-04-21T11:45:33;99504.59;;;19.69;42.28
77351;BME280;66420;50.246;14.320;2023-04-21T11:48:18;99509.06;;;19.12;42.32
77351;BME280;66420;50.246;14.320;2023-04-21T11:51:03;99515.22;;;18.64;42.13
77351;BME280;66420;50.246;14.320;2023-04-21T11:53:48;99514.13;;;18.52;44.00
77351;BME280;66420;50.246;14.320;2023-04-21T11:56:37;99503.09;;;18.72;42.84
77351;BME280;66420;50.246;14.320;2023-04-21T11:59:22;99498.34;;;19.11;40.41
77351;BME280;66420;50.246;14.320;2023-04-21T12:02:12;99503.69;;;18.81;41.63
77351;BME280;66420;50.246;14.320;2023-04-21T12:07:46;99498.44;;;19.37;40.61
77351;BME280;66420;50.246;14.320;2023-04-21T12:10:35;99492.94;;;19.60;39.96
77351;BME280;66420;50.246;14.320;2023-04-21T12:13:27;99497.50;;;19.48;39.32
77351;BME280;66420;50.246;14.320;2023-04-21T12:16:12;99501.28;;;19.60;40.29
77351;BME280;66420;50.246;14.320;2023-04-21T12:18:57;99489.41;;;19.63;41.55
77351;BME280;66420;50.246;14.320;2023-04-21T12:21:42;99496.22;;;19.65;39.41
77351;BME280;66420;50.246;14.320;2023-04-21T12:24:27;99495.34;;;19.84;40.03
77351;BME280;66420;50.246;14.320;2023-04-21T12:27:12;99486.84;;;20.00;40.18
77351;BME280;66420;50.246;14.320;2023-04-21T12:29:57;99494.34;;;19.73;39.51
77351;BME280;66420;50.246;14.320;2023-04-21T12:32:41;99495.25;;;19.80;38.95
77351;BME280;66420;50.246;14.320;2023-04-21T12:35:26;99484.53;;;19.79;37.66
77351;BME280;66420;50.246;14.320;2023-04-21T12:38:11;99483.59;;;19.94;37.26
77351;BME280;66420;50.246;14.320;2023-04-21T12:40:55;99479.75;;;20.02;38.70
77351;BME280;66420;50.246;14.320;2023-04-21T12:43:40;99478.91;;;19.98;37.39
77351;BME280;66420;50.246;14.320;2023-04-21T12:46:24;99475.56;;;19.89;38.39
77351;BME280;66420;50.246;14.320;2023-04-21T12:49:10;99473.13;;;20.10;39.75
77351;BME280;66420;50.246;14.320;2023-04-21T12:51:55;99471.75;;;19.97;38.44
77351;BME280;66420;50.246;14.320;2023-04-21T12:54:39;99475.91;;;20.10;38.36
77351;BME280;66420;50.246;14.320;2023-04-21T12:57:24;99465.13;;;20.05;37.10
77351;BME280;66420;50.246;14.320;2023-04-21T13:00:10;99457.97;;;20.30;39.31
77351;BME280;66420;50.246;14.320;2023-04-21T13:02:56;99462.66;;;20.53;38.42
77351;BME280;66420;50.246;14.320;2023-04-21T13:05:40;99459.19;;;20.33;38.04
77351;BME280;66420;50.246;14.320;2023-04-21T13:08:25;99458.66;;;20.54;38.74
77351;BME280;66420;50.246;14.320;2023-04-21T13:11:10;99459.13;;;20.03;37.75
77351;BME280;66420;50.246;14.320;2023-04-21T13:13:55;99460.34;;;19.34;38.74
77351;BME280;66420;50.246;14.320;2023-04-21T13:16:40;99454.75;;;19.11;38.63
77351;BME280;66420;50.246;14.320;2023-04-21T13:19:25;99453.75;;;19.65;39.43
77351;BME280;66420;50.246;14.320;2023-04-21T13:22:09;99453.06;;;19.48;37.50
77351;BME280;66420;50.246;14.320;2023-04-21T13:24:54;99450.50;;;19.17;37.85
77351;BME280;66420;50.246;14.320;2023-04-21T13:27:38;99450.78;;;19.31;37.90
77351;BME280;66420;50.246;14.320;2023-04-21T13:30:23;99441.38;;;19.39;37.89
77351;BME280;66420;50.246;14.320;2023-04-21T13:33:08;99439.88;;;19.65;40.59
77351;BME280;66420;50.246;14.320;2023-04-21T13:35:54;99437.03;;;19.84;39.04
77351;BME280;66420;50.246;14.320;2023-04-21T13:38:38;99433.38;;;19.34;37.79
77351;BME280;66420;50.246;14.320;2023-04-21T13:41:24;99435.97;;;19.01;38.97
77351;BME280;66420;50.246;14.320;2023-04-21T13:44:09;99429.22;;;19.02;38.37
77351;BME280;66420;50.246;14.320;2023-04-21T13:46:54;99429.38;;;18.90;39.65
77351;BME280;66420;50.246;14.320;2023-04-21T13:49:40;99423.63;;;19.21;39.79
77351;BME280;66420;50.246;14.320;2023-04-21T13:52:25;99418.88;;;19.22;36.78
77351;BME280;66420;50.246;14.320;2023-04-21T13:55:10;99424.63;;;19.32;36.36
77351;BME280;66420;50.246;14.320;2023-04-21T13:57:54;99417.06;;;19.29;36.17
77351;BME280;66420;50.246;14.320;2023-04-21T14:00:39;99413.00;;;19.46;36.01
77351;BME280;66420;50.246;14.320;2023-04-21T14:03:24;99411.19;;;19.57;37.63
77351;BME280;66420;50.246;14.320;2023-04-21T14:06:09;99405.31;;;19.62;37.35
77351;BME280;66420;50.246;14.320;2023-04-21T14:08:53;99405.44;;;19.69;37.84
77351;BME280;66420;50.246;14.320;2023-04-21T14:11:38;99403.94;;;19.75;37.30
77351;BME280;66420;50.246;14.320;2023-04-21T14:14:23;99396.09;;;19.81;36.79
77351;BME280;66420;50.246;14.320;2023-04-21T14:17:08;99396.63;;;19.90;37.49
77351;BME280;66420;50.246;14.320;2023-04-21T14:19:53;99398.19;;;19.38;36.87
77351;BME280;66420;50.246;14.320;2023-04-21T14:22:38;99397.69;;;19.10;37.25
77351;BME280;66420;50.246;14.320;2023-04-21T14:25:22;99392.75;;;19.23;37.95
77351;BME280;66420;50.246;14.320;2023-04-21T14:28:07;99390.84;;;19.50;39.25
77351;BME280;66420;50.246;14.320;2023-04-21T14:30:52;99387.00;;;19.35;37.02
77351;BME280;66420;50.246;14.320;2023-04-21T14:33:37;99380.41;;;19.20;37.48
77351;BME280;66420;50.246;14.320;2023-04-21T14:36:21;99387.94;;;18.97;38.20
77351;BME280;66420;50.246;14.320;2023-04-21T14:39:07;99388.69;;;18.75;39.33
77351;BME280;66420;50.246;14.320;2023-04-21T14:41:52;99384.84;;;18.60;38.79
77351;BME280;66420;50.246;14.320;2023-04-21T14:44:37;99381.56;;;18.54;39.45
77351;BME280;66420;50.246;14.320;2023-04-21T14:47:23;99378.50;;;18.79;41.02
77351;BME280;66420;50.246;14.320;2023-04-21T14:50:08;99374.78;;;18.94;41.08
77351;BME280;66420;50.246;14.320;2023-04-21T14:52:53;99374.78;;;18.94;38.59
77351;BME280;66420;50.246;14.320;2023-04-21T14:55:37;99363.09;;;19.04;38.37
77351;BME280;66420;50.246;14.320;2023-04-21T14:58:22;99365.75;;;18.97;37.81
77351;BME280;66420;50.246;14.320;2023-04-21T15:01:07;99355.69;;;18.89;37.05